sensor_id;sensor_type;location;lat;lon;timestamp;P1;durP1;ratioP1;P2;durP2;ratioP2
46210;SDS011;52144;48.040;-1.594;2023-03-03T00:01:06;23.75;;;11.00;;
46210;SDS011;52144;48.040;-1.594;2023-03-03T00:03:34;23.65;;;11.43;;
46210;SDS011;52144;48.040;-1.594;2023-03-03T00:06:02;26.98;;;11.27;;
46210;SDS011;52144;48.040;-1.594;2023-03-03T00:08:31;22.60;;;12.52;;
46210;SDS011;52144;48.040;-1.594;2023-03-03T00:11:00;34.80;;;11.15;;
46210;SDS011;52144;48.040;-1.594;2023-03-03T00:13:31;19.77;;;9.05;;
46210;SDS011;52144;48.040;-1.594;2023-03-03T00:16:09;17.15;;;10.93;;
46210;SDS011;52144;48.040;-1.594;2023-03-03T00:18:40;19.02;;;10.23;;
46210;SDS011;52144;48.040;-1.594;2023-03-03T00:21:19;21.73;;;10.10;;
46210;SDS011;52144;48.040;-1.594;2023-03-03T00:23:51;23.55;;;11.73;;
46210;SDS011;52144;48.040;-1.594;2023-03-03T00:26:22;24.05;;;13.00;;
46210;SDS011;52144;48.040;-1.594;2023-03-03T00:28:55;19.40;;;9.95;;
46210;SDS011;52144;48.040;-1.594;2023-03-03T00:31:25;32.78;;;11.45;;
46210;SDS011;52144;48.040;-1.594;2023-03-03T00:33:57;19.90;;;10.63;;
46210;SDS011;52144;48.040;-1.594;2023-03-03T00:36:38;22.20;;;10.82;;
46210;SDS011;52144;48.040;-1.594;2023-03-03T00:39:14;32.72;;;12.82;;
46210;SDS011;52144;48.040;-1.594;2023-03-03T00:41:46;24.40;;;9.93;;
46210;SDS011;52144;48.040;-1.594;2023-03-03T00:44:30;27.48;;;10.77;;
46210;SDS011;52144;48.040;-1.594;2023-03-03T00:47:15;21.73;;;11.30;;
46210;SDS011;52144;48.040;-1.594;2023-03-03T00:49:52;23.42;;;11.05;;
46210;SDS011;52144;48.040;-1.594;2023-03-03T00:52:21;21.48;;;10.50;;
46210;SDS011;52144;48.040;-1.594;2023-03-03T00:54:54;23.77;;;10.82;;
46210;SDS011;52144;48.040;-1.594;2023-03-03T00:57:24;20.67;;;10.32;;
46210;SDS011;52144;48.040;-1.594;2023-03-03T00:59:51;22.63;;;10.02;;
46210;SDS011;52144;48.040;-1.594;2023-03-03T01:02:20;21.02;;;10.65;;
46210;SDS011;52144;48.040;-1.594;2023-03-03T01:04:49;23.08;;;11.10;;
46210;SDS011;52144;48.040;-1.594;2023-03-03T01:07:18;31.23;;;10.75;;
46210;SDS011;52144;48.040;-1.594;2023-03-03T01:09:46;28.95;;;10.65;;
46210;SDS011;52144;48.040;-1.594;2023-03-03T01:12:14;26.30;;;12.55;;
46210;SDS011;52144;48.040;-1.594;2023-03-03T01:14:43;16.27;;;9.20;;
46210;SDS011;52144;48.040;-1.594;2023-03-03T01:17:11;19.90;;;10.50;;
46210;SDS011;52144;48.040;-1.594;2023-03-03T01:19:39;16.95;;;9.20;;
46210;SDS011;52144;48.040;-1.594;2023-03-03T01:22:07;31.30;;;10.30;;
46210;SDS011;52144;48.040;-1.594;2023-03-03T01:24:34;25.90;;;11.10;;
46210;SDS011;52144;48.040;-1.594;2023-03-03T01:27:02;16.17;;;8.38;;
46210;SDS011;52144;48.040;-1.594;2023-03-03T01:29:30;14.73;;;8.88;;
46210;SDS011;52144;48.040;-1.594;2023-03-03T01:31:59;23.40;;;9.10;;
46210;SDS011;52144;48.040;-1.594;2023-03-03T01:34:27;21.98;;;11.02;;
46210;SDS011;52144;48.040;-1.594;2023-03-03T01:36:55;22.50;;;10.07;;
46210;SDS011;52144;48.040;-1.594;2023-03-03T01:39:23;19.65;;;9.60;;
46210;SDS011;52144;48.040;-1.594;2023-03-03T01:41:50;21.40;;;10.35;;
46210;SDS011;52144;48.040;-1.594;2023-03-03T01:44:18;14.30;;;8.32;;
46210;SDS011;52144;48.040;-1.594;2023-03-03T01:46:47;21.40;;;9.82;;
46210;SDS011;52144;48.040;-1.594;2023-03-03T01:49:23;16.92;;;10.02;;
46210;SDS011;52144;48.040;-1.594;2023-03-03T01:51:55;15.77;;;7.70;;
46210;SDS011;52144;48.040;-1.594;2023-03-03T01:54:27;27.13;;;11.60;;
46210;SDS011;52144;48.040;-1.594;2023-03-03T01:56:58;20.77;;;10.65;;
46210;SDS011;52144;48.040;-1.594;2023-03-03T01:59:30;17.98;;;10.15;;
46210;SDS011;52144;48.040;-1.594;2023-03-03T02:02:03;19.08;;;10.13;;
46210;SDS011;52144;48.040;-1.594;2023-03-03T02:04:33;17.17;;;10.95;;
46210;SDS011;52144;48.040;-1.594;2023-03-03T02:07:01;19.58;;;10.02;;
46210;SDS011;52144;48.040;-1.594;2023-03-03T02:09:36;15.73;;;8.38;;
46210;SDS011;52144;48.040;-1.594;2023-03-03T02:12:11;15.38;;;8.07;;
46210;SDS011;52144;48.040;-1.594;2023-03-03T02:14:43;15.93;;;8.80;;
46210;SDS011;52144;48.040;-1.594;2023-03-03T02:17:11;16.85;;;8.25;;
46210;SDS011;52144;48.040;-1.594;2023-03-03T02:19:42;19.08;;;8.15;;
46210;SDS011;52144;48.040;-1.594;2023-03-03T02:22:20;21.25;;;9.15;;
46210;SDS011;52144;48.040;-1.594;2023-03-03T02:24:59;19.27;;;8.95;;
46210;SDS011;52144;48.040;-1.594;2023-03-03T02:27:30;18.30;;;9.00;;
46210;SDS011;52144;48.040;-1.594;2023-03-03T02:30:07;19.25;;;8.75;;
46210;SDS011;52144;48.040;-1.594;2023-03-03T02:32:37;20.58;;;10.52;;
46210;SDS011;52144;48.040;-1.594;2023-03-03T02:35:19;15.43;;;8.27;;
46210;SDS011;52144;48.040;-1.594;2023-03-03T02:37:54;14.68;;;8.73;;
46210;SDS011;52144;48.040;-1.594;2023-03-03T02:40:25;18.45;;;9.40;;
46210;SDS011;52144;48.040;-1.594;2023-03-03T02:42:59;15.10;;;7.82;;
46210;SDS011;52144;48.040;-1.594;2023-03-03T02:45:31;18.10;;;10.13;;
46210;SDS011;52144;48.040;-1.594;2023-03-03T02:47:58;14.20;;;7.20;;
46210;SDS011;52144;48.040;-1.594;2023-03-03T02:50:26;16.73;;;8.23;;
46210;SDS011;52144;48.040;-1.594;2023-03-03T02:52:54;14.25;;;9.27;;
46210;SDS011;52144;48.040;-1.594;2023-03-03T02:55:22;25.25;;;8.63;;
46210;SDS011;52144;48.040;-1.594;2023-03-03T02:57:49;12.57;;;8.02;;
46210;SDS011;52144;48.040;-1.594;2023-03-03T03:00:19;17.65;;;8.20;;
46210;SDS011;52144;48.040;-1.594;2023-03-03T03:02:47;16.10;;;7.72;;
46210;SDS011;52144;48.040;-1.594;2023-03-03T03:05:15;17.98;;;8.55;;
46210;SDS011;52144;48.040;-1.594;2023-03-03T03:07:43;17.80;;;8.43;;
46210;SDS011;52144;48.040;-1.594;2023-03-03T03:10:10;16.95;;;9.43;;
46210;SDS011;52144;48.040;-1.594;2023-03-03T03:12:38;16.58;;;8.73;;
46210;SDS011;52144;48.040;-1.594;2023-03-03T03:15:06;17.23;;;7.47;;
46210;SDS011;52144;48.040;-1.594;2023-03-03T03:17:37;19.70;;;8.70;;
46210;SDS011;52144;48.040;-1.594;2023-03-03T03:20:05;16.17;;;8.02;;
46210;SDS011;52144;48.040;-1.594;2023-03-03T03:22:33;12.15;;;7.10;;
46210;SDS011;52144;48.040;-1.594;2023-03-03T03:25:01;18.30;;;9.30;;
46210;SDS011;52144;48.040;-1.594;2023-03-03T03:27:29;20.80;;;8.07;;
46210;SDS011;52144;48.040;-1.594;2023-03-03T03:29:57;18.52;;;8.85;;
46210;SDS011;52144;48.040;-1.594;2023-03-03T03:32:24;19.58;;;8.82;;
46210;SDS011;52144;48.040;-1.594;2023-03-03T03:34:54;16.63;;;8.00;;
46210;SDS011;52144;48.040;-1.594;2023-03-03T03:37:21;16.52;;;9.00;;
46210;SDS011;52144;48.040;-1.594;2023-03-03T03:39:49;18.67;;;7.65;;
46210;SDS011;52144;48.040;-1.594;2023-03-03T03:42:17;14.02;;;8.75;;
46210;SDS011;52144;48.040;-1.594;2023-03-03T03:44:45;13.73;;;8.02;;
46210;SDS011;52144;48.040;-1.594;2023-03-03T03:47:12;12.98;;;6.78;;
46210;SDS011;52144;48.040;-1.594;2023-03-03T03:49:40;14.05;;;8.88;;
46210;SDS011;52144;48.040;-1.594;2023-03-03T03:52:09;18.30;;;8.05;;
46210;SDS011;52144;48.040;-1.594;2023-03-03T03:54:37;11.68;;;7.63;;
46210;SDS011;52144;48.040;-1.594;2023-03-03T03:57:05;18.17;;;9.23;;
46210;SDS011;52144;48.040;-1.594;2023-03-03T03:59:33;17.17;;;9.93;;
46210;SDS011;52144;48.040;-1.594;2023-03-03T04:02:01;23.33;;;10.75;;
46210;SDS011;52144;48.040;-1.594;2023-03-03T04:04:29;20.52;;;10.80;;
46210;SDS011;52144;48.040;-1.594;2023-03-03T04:06:57;17.33;;;9.70;;
46210;SDS011;52144;48.040;-1.594;2023-03-03T04:09:26;20.60;;;11.50;;
46210;SDS011;52144;48.040;-1.594;2023-03-03T04:11:53;21.38;;;10.07;;
46210;SDS011;52144;48.040;-1.594;2023-03-03T04:14:21;23.83;;;12.00;;
46210;SDS011;52144;48.040;-1.594;2023-03-03T04:16:49;21.90;;;11.85;;
46210;SDS011;52144;48.040;-1.594;2023-03-03T04:19:17;25.20;;;10.68;;
46210;SDS011;52144;48.040;-1.594;2023-03-03T04:21:45;28.38;;;11.88;;
46210;SDS011;52144;48.040;-1.594;2023-03-03T04:24:12;20.95;;;11.05;;
46210;SDS011;52144;48.040;-1.594;2023-03-03T04:26:41;21.40;;;11.65;;
46210;SDS011;52144;48.040;-1.594;2023-03-03T04:29:09;24.88;;;12.63;;
46210;SDS011;52144;48.040;-1.594;2023-03-03T04:31:37;25.13;;;13.43;;
46210;SDS011;52144;48.040;-1.594;2023-03-03T04:34:05;22.85;;;11.88;;
46210;SDS011;52144;48.040;-1.594;2023-03-03T04:36:33;28.98;;;13.32;;
46210;SDS011;52144;48.040;-1.594;2023-03-03T04:39:00;26.45;;;12.80;;
46210;SDS011;52144;48.040;-1.594;2023-03-03T04:41:28;30.60;;;13.10;;
46210;SDS011;52144;48.040;-1.594;2023-03-03T04:43:57;30.40;;;14.50;;
46210;SDS011;52144;48.040;-1.594;2023-03-03T04:46:25;30.27;;;14.05;;
46210;SDS011;52144;48.040;-1.594;2023-03-03T04:48:53;25.23;;;13.68;;
46210;SDS011;52144;48.040;-1.594;2023-03-03T04:51:22;43.10;;;12.13;;
46210;SDS011;52144;48.040;-1.594;2023-03-03T04:53:50;33.60;;;14.05;;
46210;SDS011;52144;48.040;-1.594;2023-03-03T04:56:17;20.02;;;11.68;;
46210;SDS011;52144;48.040;-1.594;2023-03-03T04:58:45;32.38;;;13.52;;
46210;SDS011;52144;48.040;-1.594;2023-03-03T05:01:14;29.55;;;12.43;;
46210;SDS011;52144;48.040;-1.594;2023-03-03T05:03:44;24.65;;;13.93;;
46210;SDS011;52144;48.040;-1.594;2023-03-03T05:06:11;25.30;;;12.85;;
46210;SDS011;52144;48.040;-1.594;2023-03-03T05:08:39;27.40;;;12.98;;
46210;SDS011;52144;48.040;-1.594;2023-03-03T05:11:08;34.03;;;14.23;;
46210;SDS011;52144;48.040;-1.594;2023-03-03T05:13:36;29.17;;;12.98;;
46210;SDS011;52144;48.040;-1.594;2023-03-03T05:16:04;28.48;;;13.07;;
46210;SDS011;52144;48.040;-1.594;2023-03-03T05:18:34;20.95;;;13.25;;
46210;SDS011;52144;48.040;-1.594;2023-03-03T05:21:02;33.75;;;14.10;;
46210;SDS011;52144;48.040;-1.594;2023-03-03T05:23:30;34.10;;;14.25;;
46210;SDS011;52144;48.040;-1.594;2023-03-03T05:25:58;25.85;;;12.40;;
46210;SDS011;52144;48.040;-1.594;2023-03-03T05:28:26;27.45;;;12.90;;
46210;SDS011;52144;48.040;-1.594;2023-03-03T05:30:54;30.83;;;15.15;;
46210;SDS011;52144;48.040;-1.594;2023-03-03T05:33:22;35.35;;;16.13;;
46210;SDS011;52144;48.040;-1.594;2023-03-03T05:35:53;31.75;;;14.68;;
46210;SDS011;52144;48.040;-1.594;2023-03-03T05:38:23;21.70;;;12.57;;
46210;SDS011;52144;48.040;-1.594;2023-03-03T05:40:51;34.65;;;13.90;;
46210;SDS011;52144;48.040;-1.594;2023-03-03T05:43:19;26.27;;;13.95;;
46210;SDS011;52144;48.040;-1.594;2023-03-03T05:45:48;26.73;;;13.80;;
46210;SDS011;52144;48.040;-1.594;2023-03-03T05:48:21;30.50;;;13.77;;
46210;SDS011;52144;48.040;-1.594;2023-03-03T05:50:49;27.02;;;14.00;;
46210;SDS011;52144;48.040;-1.594;2023-03-03T05:53:18;32.78;;;15.77;;
46210;SDS011;52144;48.040;-1.594;2023-03-03T05:55:46;33.38;;;13.68;;
46210;SDS011;52144;48.040;-1.594;2023-03-03T05:58:13;33.20;;;15.27;;
46210;SDS011;52144;48.040;-1.594;2023-03-03T06:00:41;34.35;;;15.25;;
46210;SDS011;52144;48.040;-1.594;2023-03-03T06:03:09;36.22;;;18.13;;
46210;SDS011;52144;48.040;-1.594;2023-03-03T06:05:37;27.98;;;13.77;;
46210;SDS011;52144;48.040;-1.594;2023-03-03T06:08:04;35.08;;;15.70;;
46210;SDS011;52144;48.040;-1.594;2023-03-03T06:10:33;27.90;;;14.27;;
46210;SDS011;52144;48.040;-1.594;2023-03-03T06:13:01;33.40;;;15.25;;
46210;SDS011;52144;48.040;-1.594;2023-03-03T06:15:29;29.95;;;13.23;;
46210;SDS011;52144;48.040;-1.594;2023-03-03T06:17:57;37.05;;;16.20;;
46210;SDS011;52144;48.040;-1.594;2023-03-03T06:20:25;31.30;;;14.32;;
46210;SDS011;52144;48.040;-1.594;2023-03-03T06:22:53;35.40;;;17.58;;
46210;SDS011;52144;48.040;-1.594;2023-03-03T06:25:21;33.08;;;16.23;;
46210;SDS011;52144;48.040;-1.594;2023-03-03T06:27:50;32.03;;;15.95;;
46210;SDS011;52144;48.040;-1.594;2023-03-03T06:30:18;31.40;;;17.08;;
46210;SDS011;52144;48.040;-1.594;2023-03-03T06:32:45;32.47;;;14.00;;
46210;SDS011;52144;48.040;-1.594;2023-03-03T06:35:13;30.52;;;15.10;;
46210;SDS011;52144;48.040;-1.594;2023-03-03T06:37:41;35.25;;;16.15;;
46210;SDS011;52144;48.040;-1.594;2023-03-03T06:40:09;37.75;;;17.50;;
46210;SDS011;52144;48.040;-1.594;2023-03-03T06:42:38;31.48;;;16.10;;
46210;SDS011;52144;48.040;-1.594;2023-03-03T06:45:08;29.08;;;14.68;;
46210;SDS011;52144;48.040;-1.594;2023-03-03T06:47:36;39.70;;;17.40;;
46210;SDS011;52144;48.040;-1.594;2023-03-03T06:50:04;56.72;;;17.23;;
46210;SDS011;52144;48.040;-1.594;2023-03-03T06:52:33;36.20;;;17.17;;
46210;SDS011;52144;48.040;-1.594;2023-03-03T06:55:01;40.88;;;18.83;;
46210;SDS011;52144;48.040;-1.594;2023-03-03T06:57:38;32.88;;;16.90;;
46210;SDS011;52144;48.040;-1.594;2023-03-03T07:00:13;41.97;;;20.55;;
46210;SDS011;52144;48.040;-1.594;2023-03-03T07:02:43;33.67;;;16.35;;
46210;SDS011;52144;48.040;-1.594;2023-03-03T07:05:12;44.17;;;18.00;;
46210;SDS011;52144;48.040;-1.594;2023-03-03T07:07:42;45.90;;;17.65;;
46210;SDS011;52144;48.040;-1.594;2023-03-03T07:10:18;40.30;;;19.38;;
46210;SDS011;52144;48.040;-1.594;2023-03-03T07:12:50;46.50;;;20.88;;
46210;SDS011;52144;48.040;-1.594;2023-03-03T07:15:20;36.25;;;18.70;;
46210;SDS011;52144;48.040;-1.594;2023-03-03T07:17:51;44.00;;;19.38;;
46210;SDS011;52144;48.040;-1.594;2023-03-03T07:20:24;45.42;;;20.42;;
46210;SDS011;52144;48.040;-1.594;2023-03-03T07:22:58;38.80;;;18.65;;
46210;SDS011;52144;48.040;-1.594;2023-03-03T07:25:28;39.58;;;18.52;;
46210;SDS011;52144;48.040;-1.594;2023-03-03T07:27:59;49.50;;;20.52;;
46210;SDS011;52144;48.040;-1.594;2023-03-03T07:30:39;39.63;;;19.38;;
46210;SDS011;52144;48.040;-1.594;2023-03-03T07:33:13;38.47;;;18.08;;
46210;SDS011;52144;48.040;-1.594;2023-03-03T07:35:47;52.45;;;19.95;;
46210;SDS011;52144;48.040;-1.594;2023-03-03T07:38:16;44.60;;;20.05;;
46210;SDS011;52144;48.040;-1.594;2023-03-03T07:40:56;47.80;;;21.17;;
46210;SDS011;52144;48.040;-1.594;2023-03-03T07:43:28;54.30;;;21.27;;
46210;SDS011;52144;48.040;-1.594;2023-03-03T07:46:16;45.03;;;19.40;;
46210;SDS011;52144;48.040;-1.594;2023-03-03T07:48:50;45.17;;;20.30;;
46210;SDS011;52144;48.040;-1.594;2023-03-03T07:51:20;35.83;;;19.65;;
46210;SDS011;52144;48.040;-1.594;2023-03-03T07:53:50;43.88;;;18.88;;
46210;SDS011;52144;48.040;-1.594;2023-03-03T07:56:24;49.03;;;20.00;;
46210;SDS011;52144;48.040;-1.594;2023-03-03T07:58:55;45.15;;;21.27;;
46210;SDS011;52144;48.040;-1.594;2023-03-03T08:01:30;54.22;;;22.30;;
46210;SDS011;52144;48.040;-1.594;2023-03-03T08:04:11;43.42;;;19.92;;
46210;SDS011;52144;48.040;-1.594;2023-03-03T08:06:45;52.50;;;20.60;;
46210;SDS011;52144;48.040;-1.594;2023-03-03T08:17:59;40.78;;;20.85;;
46210;SDS011;52144;48.040;-1.594;2023-03-03T08:23:18;50.05;;;22.20;;
46210;SDS011;52144;48.040;-1.594;2023-03-03T08:25:47;54.13;;;21.17;;
46210;SDS011;52144;48.040;-1.594;2023-03-03T08:28:16;47.13;;;20.88;;
46210;SDS011;52144;48.040;-1.594;2023-03-03T08:30:45;48.83;;;22.23;;
46210;SDS011;52144;48.040;-1.594;2023-03-03T08:33:15;43.22;;;22.88;;
46210;SDS011;52144;48.040;-1.594;2023-03-03T08:35:44;49.58;;;19.85;;
46210;SDS011;52144;48.040;-1.594;2023-03-03T08:38:14;45.05;;;21.05;;
46210;SDS011;52144;48.040;-1.594;2023-03-03T08:40:43;47.08;;;20.05;;
46210;SDS011;52144;48.040;-1.594;2023-03-03T08:43:12;46.40;;;20.85;;
46210;SDS011;52144;48.040;-1.594;2023-03-03T08:45:42;45.08;;;20.08;;
46210;SDS011;52144;48.040;-1.594;2023-03-03T08:48:12;50.05;;;21.33;;
46210;SDS011;52144;48.040;-1.594;2023-03-03T08:50:42;36.92;;;19.90;;
46210;SDS011;52144;48.040;-1.594;2023-03-03T08:53:11;45.45;;;19.63;;
46210;SDS011;52144;48.040;-1.594;2023-03-03T08:55:40;47.55;;;21.08;;
46210;SDS011;52144;48.040;-1.594;2023-03-03T08:58:08;47.13;;;19.63;;
46210;SDS011;52144;48.040;-1.594;2023-03-03T09:00:36;54.40;;;22.15;;
46210;SDS011;52144;48.040;-1.594;2023-03-03T09:03:04;47.72;;;19.02;;
46210;SDS011;52144;48.040;-1.594;2023-03-03T09:05:32;48.30;;;22.80;;
46210;SDS011;52144;48.040;-1.594;2023-03-03T09:08:02;42.42;;;20.75;;
46210;SDS011;52144;48.040;-1.594;2023-03-03T09:10:31;44.78;;;22.25;;
46210;SDS011;52144;48.040;-1.594;2023-03-03T09:13:01;47.67;;;21.77;;
46210;SDS011;52144;48.040;-1.594;2023-03-03T09:15:35;44.35;;;18.65;;
46210;SDS011;52144;48.040;-1.594;2023-03-03T09:18:09;42.08;;;19.77;;
46210;SDS011;52144;48.040;-1.594;2023-03-03T09:20:41;41.30;;;18.75;;
46210;SDS011;52144;48.040;-1.594;2023-03-03T09:23:31;39.83;;;17.98;;
46210;SDS011;52144;48.040;-1.594;2023-03-03T09:26:21;41.05;;;19.23;;
46210;SDS011;52144;48.040;-1.594;2023-03-03T09:28:54;38.60;;;16.92;;
46210;SDS011;52144;48.040;-1.594;2023-03-03T09:31:25;35.33;;;17.58;;
46210;SDS011;52144;48.040;-1.594;2023-03-03T09:33:59;35.50;;;17.92;;
46210;SDS011;52144;48.040;-1.594;2023-03-03T09:36:27;43.53;;;18.48;;
46210;SDS011;52144;48.040;-1.594;2023-03-03T09:38:58;34.92;;;17.52;;
46210;SDS011;52144;48.040;-1.594;2023-03-03T09:41:43;41.00;;;17.17;;
46210;SDS011;52144;48.040;-1.594;2023-03-03T09:44:25;42.40;;;17.30;;
46210;SDS011;52144;48.040;-1.594;2023-03-03T09:47:24;39.70;;;17.58;;
46210;SDS011;52144;48.040;-1.594;2023-03-03T09:50:07;38.13;;;17.23;;
46210;SDS011;52144;48.040;-1.594;2023-03-03T09:52:47;37.53;;;18.38;;
46210;SDS011;52144;48.040;-1.594;2023-03-03T09:55:25;31.98;;;16.27;;
46210;SDS011;52144;48.040;-1.594;2023-03-03T09:58:10;34.80;;;15.63;;
46210;SDS011;52144;48.040;-1.594;2023-03-03T10:00:50;31.52;;;16.60;;
46210;SDS011;52144;48.040;-1.594;2023-03-03T10:03:36;29.48;;;16.83;;
46210;SDS011;52144;48.040;-1.594;2023-03-03T10:06:20;35.72;;;16.98;;
46210;SDS011;52144;48.040;-1.594;2023-03-03T10:08:55;35.05;;;15.93;;
46210;SDS011;52144;48.040;-1.594;2023-03-03T10:11:33;39.03;;;16.65;;
46210;SDS011;52144;48.040;-1.594;2023-03-03T10:14:12;31.42;;;16.05;;
46210;SDS011;52144;48.040;-1.594;2023-03-03T10:17:03;28.65;;;15.73;;
46210;SDS011;52144;48.040;-1.594;2023-03-03T10:19:44;39.20;;;15.82;;
46210;SDS011;52144;48.040;-1.594;2023-03-03T10:22:22;37.92;;;16.23;;
46210;SDS011;52144;48.040;-1.594;2023-03-03T10:25:01;33.65;;;17.08;;
46210;SDS011;52144;48.040;-1.594;2023-03-03T10:27:46;32.65;;;15.68;;
46210;SDS011;52144;48.040;-1.594;2023-03-03T10:30:25;27.60;;;14.32;;
46210;SDS011;52144;48.040;-1.594;2023-03-03T10:33:20;31.23;;;14.43;;
46210;SDS011;52144;48.040;-1.594;2023-03-03T10:35:59;25.92;;;15.65;;
46210;SDS011;52144;48.040;-1.594;2023-03-03T10:38:45;35.47;;;14.85;;
46210;SDS011;52144;48.040;-1.594;2023-03-03T10:41:28;33.60;;;16.77;;
46210;SDS011;52144;48.040;-1.594;2023-03-03T10:44:17;36.72;;;14.45;;
46210;SDS011;52144;48.040;-1.594;2023-03-03T10:46:57;31.02;;;14.52;;
46210;SDS011;52144;48.040;-1.594;2023-03-03T10:49:38;32.90;;;14.18;;
46210;SDS011;52144;48.040;-1.594;2023-03-03T10:52:21;29.13;;;13.50;;
46210;SDS011;52144;48.040;-1.594;2023-03-03T10:55:07;25.08;;;13.57;;
46210;SDS011;52144;48.040;-1.594;2023-03-03T10:57:48;30.27;;;12.82;;
46210;SDS011;52144;48.040;-1.594;2023-03-03T11:00:30;26.23;;;13.32;;
46210;SDS011;52144;48.040;-1.594;2023-03-03T11:03:12;32.17;;;14.25;;
46210;SDS011;52144;48.040;-1.594;2023-03-03T11:05:57;32.33;;;13.13;;
46210;SDS011;52144;48.040;-1.594;2023-03-03T11:08:28;28.00;;;13.35;;
46210;SDS011;52144;48.040;-1.594;2023-03-03T11:11:07;23.60;;;12.80;;
46210;SDS011;52144;48.040;-1.594;2023-03-03T11:13:44;27.52;;;12.07;;
46210;SDS011;52144;48.040;-1.594;2023-03-03T11:16:19;21.40;;;12.60;;
46210;SDS011;52144;48.040;-1.594;2023-03-03T11:18:59;34.80;;;13.77;;
46210;SDS011;52144;48.040;-1.594;2023-03-03T11:21:37;25.00;;;12.63;;
46210;SDS011;52144;48.040;-1.594;2023-03-03T11:24:14;22.95;;;11.90;;
46210;SDS011;52144;48.040;-1.594;2023-03-03T11:26:57;23.80;;;12.13;;
46210;SDS011;52144;48.040;-1.594;2023-03-03T11:29:43;26.65;;;12.93;;
46210;SDS011;52144;48.040;-1.594;2023-03-03T11:32:24;24.15;;;11.52;;
46210;SDS011;52144;48.040;-1.594;2023-03-03T11:35:03;30.60;;;12.95;;
46210;SDS011;52144;48.040;-1.594;2023-03-03T11:37:44;25.27;;;12.60;;
46210;SDS011;52144;48.040;-1.594;2023-03-03T11:40:17;24.13;;;10.82;;
46210;SDS011;52144;48.040;-1.594;2023-03-03T11:42:51;27.33;;;14.23;;
46210;SDS011;52144;48.040;-1.594;2023-03-03T11:45:28;22.55;;;13.25;;
46210;SDS011;52144;48.040;-1.594;2023-03-03T11:48:03;21.30;;;13.05;;
46210;SDS011;52144;48.040;-1.594;2023-03-03T11:50:36;23.42;;;10.27;;
46210;SDS011;52144;48.040;-1.594;2023-03-03T11:53:15;22.45;;;12.63;;
46210;SDS011;52144;48.040;-1.594;2023-03-03T11:55:54;21.98;;;10.88;;
46210;SDS011;52144;48.040;-1.594;2023-03-03T12:00:58;27.75;;;9.50;;
46210;SDS011;52144;48.040;-1.594;2023-03-03T12:03:36;23.20;;;11.13;;
46210;SDS011;52144;48.040;-1.594;2023-03-03T12:06:16;22.90;;;10.95;;
46210;SDS011;52144;48.040;-1.594;2023-03-03T12:09:02;24.13;;;11.02;;
46210;SDS011;52144;48.040;-1.594;2023-03-03T12:11:45;21.35;;;11.20;;
46210;SDS011;52144;48.040;-1.594;2023-03-03T12:14:21;28.02;;;10.98;;
46210;SDS011;52144;48.040;-1.594;2023-03-03T12:17:02;20.00;;;9.73;;
46210;SDS011;52144;48.040;-1.594;2023-03-03T12:19:41;21.77;;;11.35;;
46210;SDS011;52144;48.040;-1.594;2023-03-03T12:22:25;24.23;;;13.15;;
46210;SDS011;52144;48.040;-1.594;2023-03-03T12:27:57;17.90;;;9.93;;
46210;SDS011;52144;48.040;-1.594;2023-03-03T12:30:35;15.80;;;9.75;;
46210;SDS011;52144;48.040;-1.594;2023-03-03T12:33:25;19.17;;;9.05;;
46210;SDS011;52144;48.040;-1.594;2023-03-03T12:36:09;19.65;;;10.90;;
46210;SDS011;52144;48.040;-1.594;2023-03-03T12:38:51;17.52;;;10.68;;
46210;SDS011;52144;48.040;-1.594;2023-03-03T12:43:57;21.50;;;11.43;;
46210;SDS011;52144;48.040;-1.594;2023-03-03T12:46:34;19.15;;;9.25;;
46210;SDS011;52144;48.040;-1.594;2023-03-03T12:49:10;20.58;;;9.98;;
46210;SDS011;52144;48.040;-1.594;2023-03-03T12:51:44;20.20;;;9.55;;
46210;SDS011;52144;48.040;-1.594;2023-03-03T12:57:15;16.25;;;9.02;;
46210;SDS011;52144;48.040;-1.594;2023-03-03T12:59:57;18.30;;;9.30;;
46210;SDS011;52144;48.040;-1.594;2023-03-03T13:02:43;19.10;;;10.48;;
46210;SDS011;52144;48.040;-1.594;2023-03-03T13:05:21;20.60;;;10.40;;
46210;SDS011;52144;48.040;-1.594;2023-03-03T13:07:56;17.25;;;9.15;;
46210;SDS011;52144;48.040;-1.594;2023-03-03T13:10:34;21.60;;;9.95;;
46210;SDS011;52144;48.040;-1.594;2023-03-03T13:13:09;19.95;;;10.25;;
46210;SDS011;52144;48.040;-1.594;2023-03-03T13:15:43;17.40;;;9.85;;
46210;SDS011;52144;48.040;-1.594;2023-03-03T13:18:27;16.98;;;9.23;;
46210;SDS011;52144;48.040;-1.594;2023-03-03T13:21:01;17.88;;;9.77;;
46210;SDS011;52144;48.040;-1.594;2023-03-03T13:23:38;15.40;;;8.95;;
46210;SDS011;52144;48.040;-1.594;2023-03-03T13:26:15;20.55;;;9.70;;
46210;SDS011;52144;48.040;-1.594;2023-03-03T13:28:54;18.27;;;9.02;;
46210;SDS011;52144;48.040;-1.594;2023-03-03T13:31:28;15.60;;;7.65;;
46210;SDS011;52144;48.040;-1.594;2023-03-03T13:34:00;17.52;;;10.05;;
46210;SDS011;52144;48.040;-1.594;2023-03-03T13:36:29;15.00;;;8.73;;
46210;SDS011;52144;48.040;-1.594;2023-03-03T13:39:04;20.90;;;9.17;;
46210;SDS011;52144;48.040;-1.594;2023-03-03T13:41:44;13.98;;;8.95;;
46210;SDS011;52144;48.040;-1.594;2023-03-03T13:44:19;19.88;;;9.23;;
46210;SDS011;52144;48.040;-1.594;2023-03-03T13:46:54;22.02;;;10.20;;
46210;SDS011;52144;48.040;-1.594;2023-03-03T13:49:32;18.35;;;9.63;;
46210;SDS011;52144;48.040;-1.594;2023-03-03T13:52:14;12.82;;;7.47;;
46210;SDS011;52144;48.040;-1.594;2023-03-03T13:57:53;15.13;;;9.32;;
46210;SDS011;52144;48.040;-1.594;2023-03-03T14:00:29;22.80;;;9.70;;
46210;SDS011;52144;48.040;-1.594;2023-03-03T14:06:03;21.02;;;10.77;;
46210;SDS011;52144;48.040;-1.594;2023-03-03T14:08:42;20.02;;;9.07;;
46210;SDS011;52144;48.040;-1.594;2023-03-03T14:11:22;21.92;;;10.60;;
46210;SDS011;52144;48.040;-1.594;2023-03-03T14:13:58;18.67;;;8.63;;
46210;SDS011;52144;48.040;-1.594;2023-03-03T14:16:37;13.13;;;8.30;;
46210;SDS011;52144;48.040;-1.594;2023-03-03T14:19:16;30.25;;;8.88;;
46210;SDS011;52144;48.040;-1.594;2023-03-03T14:21:52;21.77;;;9.20;;
46210;SDS011;52144;48.040;-1.594;2023-03-03T14:24:31;17.75;;;9.18;;
46210;SDS011;52144;48.040;-1.594;2023-03-03T14:27:23;18.25;;;9.13;;
46210;SDS011;52144;48.040;-1.594;2023-03-03T14:29:53;16.77;;;8.98;;
46210;SDS011;52144;48.040;-1.594;2023-03-03T14:32:22;13.18;;;8.15;;
46210;SDS011;52144;48.040;-1.594;2023-03-03T14:35:12;13.82;;;8.52;;
46210;SDS011;52144;48.040;-1.594;2023-03-03T14:37:45;21.63;;;10.30;;
46210;SDS011;52144;48.040;-1.594;2023-03-03T14:40:15;14.75;;;8.45;;
46210;SDS011;52144;48.040;-1.594;2023-03-03T14:42:48;15.48;;;9.10;;
46210;SDS011;52144;48.040;-1.594;2023-03-03T14:45:27;16.02;;;8.45;;
46210;SDS011;52144;48.040;-1.594;2023-03-03T14:47:57;16.13;;;9.50;;
46210;SDS011;52144;48.040;-1.594;2023-03-03T14:50:31;14.30;;;8.55;;
46210;SDS011;52144;48.040;-1.594;2023-03-03T14:53:04;18.65;;;10.77;;
46210;SDS011;52144;48.040;-1.594;2023-03-03T14:55:39;18.38;;;9.63;;
46210;SDS011;52144;48.040;-1.594;2023-03-03T14:58:27;22.38;;;10.52;;
46210;SDS011;52144;48.040;-1.594;2023-03-03T15:01:07;15.40;;;9.00;;
46210;SDS011;52144;48.040;-1.594;2023-03-03T15:03:44;17.83;;;8.85;;
46210;SDS011;52144;48.040;-1.594;2023-03-03T15:06:27;17.25;;;9.10;;
46210;SDS011;52144;48.040;-1.594;2023-03-03T15:09:19;14.50;;;7.85;;
46210;SDS011;52144;48.040;-1.594;2023-03-03T15:11:51;16.38;;;8.95;;
46210;SDS011;52144;48.040;-1.594;2023-03-03T15:14:22;16.40;;;9.35;;
46210;SDS011;52144;48.040;-1.594;2023-03-03T15:16:56;19.48;;;9.07;;